Private Wetterstation Wechselburg
Wetterdaten: Woche 23.12.13 - 29.12.13 (KW52)
Datum Zeit Temp. +2m Bodentemp. Temp.+5cm Temp. Wind Windchill X Diff Temp. Feuchte +2m Feuchte +5cm Sonnenschein Luftdruck Regen Wind Richtung Sonnenschein UV Taupunkt Windchill Windben
23.12.2013 00:00 10,2 C 15,1 C 9,5 C 9,9 C 9,1 C 0,0 C 76 % 78 % 0 % 1016,9 hPa 0,0 l/m 7,7 km/h (2 Bft) S-SO 0,00 h 0,0 UV-I 6,1 C 8,1 C 13,1 km/h (3 Bft)
23.12.2013 01:00 9,9 C 15,1 C 9,1 C 9,4 C 8,0 C 0,0 C 76 % 79 % 0 % 1016,7 hPa 0,0 l/m 13,3 km/h (3 Bft) W-SW 0,00 h 0,0 UV-I 5,9 C 5,7 C 18,6 km/h (3 Bft)
23.12.2013 02:00 9,1 C 15,5 C 8,2 C 8,5 C 6,9 C 0,0 C 81 % 84 % 0 % 1017,7 hPa 0,7 l/m 9,7 km/h (2 Bft) SW 0,00 h 0,0 UV-I 6,1 C 5,0 C 13,2 km/h (3 Bft)
23.12.2013 03:00 8,9 C 15,3 C 8,0 C 8,4 C 7,2 C 0,0 C 81 % 86 % 0 % 1017,3 hPa 0,0 l/m 8,3 km/h (2 Bft) S-SW 0,00 h 0,0 UV-I 5,8 C 5,7 C 10,0 km/h (2 Bft)
23.12.2013 04:00 7,9 C 15,6 C 7,5 C 7,5 C 6,7 C 0,0 C 83 % 86 % 0 % 1017,3 hPa 1,4 l/m 6,5 km/h (2 Bft) W-SW 0,00 h 0,0 UV-I 5,2 C 5,6 C 7,5 km/h (2 Bft)
23.12.2013 05:00 6,3 C 15,8 C 6,8 C 6,4 C 6,0 C 0,1 C 87 % 88 % 0 % 1017,8 hPa 0,7 l/m 5,8 km/h (2 Bft) W-SW 0,00 h 0,0 UV-I 4,3 C 5,1 C 7,6 km/h (2 Bft)
23.12.2013 06:00 6,0 C 15,6 C 5,8 C 5,6 C 4,6 C 0,0 C 86 % 89 % 0 % 1018,5 hPa 0,0 l/m 6,8 km/h (2 Bft) W-SW 0,00 h 0,0 UV-I 3,9 C 3,1 C 8,0 km/h (2 Bft)
23.12.2013 07:00 6,0 C 15,4 C 5,3 C 5,5 C 4,3 C 0,0 C 84 % 89 % 0 % 1019,4 hPa 0,0 l/m 7,0 km/h (2 Bft) SW 0,00 h 0,0 UV-I 3,5 C 2,7 C 8,1 km/h (2 Bft)
23.12.2013 08:00 5,6 C 15,3 C 5,3 C 5,6 C 5,4 C 0,0 C 85 % 89 % 0 % 1019,8 hPa 0,0 l/m 2,5 km/h (1 Bft) S-SO 0,00 h 0,0 UV-I 3,3 C 5,4 C 3,8 km/h (1 Bft)
23.12.2013 09:00 6,2 C 15,1 C 5,4 C 6,4 C 6,3 C 0,3 C 83 % 89 % 8 % 1020,4 hPa 0,0 l/m 2,9 km/h (1 Bft) W-SW 0,00 h 0,0 UV-I 3,5 C 5,9 C 3,3 km/h (1 Bft)
23.12.2013 10:00 7,0 C 15,0 C 6,2 C 7,8 C 7,8 C 0,8 C 82 % 89 % 21 % 1020,5 hPa 0,0 l/m 2,9 km/h (1 Bft) SW 0,00 h 0,0 UV-I 4,1 C 7,7 C 5,5 km/h (1 Bft)
23.12.2013 11:00 8,0 C 15,0 C 7,1 C 8,9 C 8,7 C 1,0 C 78 % 88 % 25 % 1020,6 hPa 0,0 l/m 6,6 km/h (2 Bft) S-SO 0,00 h 0,0 UV-I 4,4 C 7,9 C 8,4 km/h (2 Bft)
23.12.2013 12:00 8,5 C 14,9 C 7,6 C 8,7 C 8,4 C 0,2 C 75 % 86 % 6 % 1020,3 hPa 0,0 l/m 7,9 km/h (2 Bft) SW 0,00 h 0,0 UV-I 4,3 C 7,2 C 10,2 km/h (2 Bft)
23.12.2013 13:00 8,9 C 14,9 C 8,2 C 9,7 C 9,6 C 0,8 C 74 % 84 % 20 % 1020,1 hPa 0,0 l/m 4,4 km/h (1 Bft) SO 0,00 h 0,0 UV-I 4,6 C 9,5 C 5,8 km/h (2 Bft)
23.12.2013 14:00 9,0 C 14,9 C 8,3 C 9,5 C 9,5 C 0,5 C 75 % 83 % 12 % 1019,3 hPa 0,0 l/m 4,4 km/h (1 Bft) S 0,00 h 0,0 UV-I 4,8 C 9,4 C 5,2 km/h (1 Bft)
23.12.2013 15:00 9,1 C 15,0 C 8,2 C 9,2 C 9,0 C 0,1 C 76 % 83 % 4 % 1018,6 hPa 0,0 l/m 4,0 km/h (1 Bft) S 0,00 h 0,0 UV-I 5,1 C 8,9 C 4,6 km/h (1 Bft)
23.12.2013 16:00 8,5 C 15,1 C 7,4 C 8,2 C 7,6 C 0,0 C 78 % 84 % 0 % 1018,4 hPa 0,0 l/m 4,2 km/h (1 Bft) S 0,00 h 0,0 UV-I 4,8 C 7,4 C 6,3 km/h (2 Bft)
23.12.2013 17:00 8,1 C 15,2 C 7,1 C 7,9 C 7,5 C 0,0 C 79 % 84 % 0 % 1017,9 hPa 0,0 l/m 3,1 km/h (1 Bft) S 0,00 h 0,0 UV-I 4,6 C 7,5 C 4,3 km/h (1 Bft)
23.12.2013 18:00 7,6 C 15,1 C 6,5 C 7,3 C 6,6 C 0,0 C 79 % 84 % 0 % 1017,0 hPa 0,0 l/m 2,9 km/h (1 Bft) S 0,00 h 0,0 UV-I 4,3 C 6,5 C 3,7 km/h (1 Bft)
23.12.2013 19:00 7,6 C 15,1 C 6,6 C 7,4 C 7,1 C 0,0 C 79 % 84 % 0 % 1016,0 hPa 0,0 l/m 1,9 km/h (1 Bft) N-NO 0,00 h 0,0 UV-I 4,2 C 7,1 C 2,7 km/h (1 Bft)
23.12.2013 20:00 7,3 C 15,1 C 5,9 C 7,0 C 6,5 C 0,0 C 79 % 84 % 0 % 1016,0 hPa 0,0 l/m 0,5 km/h (0 Bft) O-SO 0,00 h 0,0 UV-I 3,8 C 6,5 C 0,4 km/h (0 Bft)
23.12.2013 21:00 6,9 C 15,1 C 5,6 C 6,6 C 6,1 C 0,0 C 81 % 84 % 0 % 1014,1 hPa 0,0 l/m 0,6 km/h (0 Bft) N 0,00 h 0,0 UV-I 3,8 C 6,1 C 1,4 km/h (1 Bft)
23.12.2013 22:00 6,6 C 15,1 C 5,2 C 6,3 C 5,7 C 0,0 C 82 % 84 % 0 % 1013,4 hPa 0,0 l/m 0,3 km/h (0 Bft) N 0,00 h 0,0 UV-I 3,7 C 5,7 C 0,8 km/h (0 Bft)
23.12.2013 23:00 7,5 C 15,0 C 6,0 C 7,3 C 6,9 C 0,0 C 81 % 85 % 0 % 1012,8 hPa 0,0 l/m 0,9 km/h (0 Bft) O-NO 0,00 h 0,0 UV-I 4,5 C 6,9 C 1,3 km/h (1 Bft)
24.12.2013 00:00 8,4 C 14,9 C 7,0 C 8,2 C 7,8 C 0,0 C 78 % 83 % 0 % 1012,3 hPa 0,0 l/m 1,4 km/h (1 Bft) N 0,00 h 0,0 UV-I 4,7 C 7,8 C 3,4 km/h (1 Bft)
24.12.2013 01:00 8,4 C 14,9 C 6,7 C 8,0 C 7,3 C 0,0 C 76 % 81 % 0 % 1011,1 hPa 0,0 l/m 1,0 km/h (0 Bft) O-SO 0,00 h 0,0 UV-I 4,3 C 7,3 C 1,9 km/h (1 Bft)
24.12.2013 02:00 8,1 C 14,9 C 6,7 C 7,8 C 7,3 C 0,0 C 76 % 81 % 0 % 1010,4 hPa 0,0 l/m 1,1 km/h (1 Bft) O 0,00 h 0,0 UV-I 4,1 C 7,3 C 2,0 km/h (1 Bft)
24.12.2013 03:00 8,6 C 14,9 C 6,9 C 8,4 C 7,9 C 0,0 C 72 % 79 % 0 % 1009,6 hPa 0,0 l/m 1,1 km/h (0 Bft) O-NO 0,00 h 0,0 UV-I 3,7 C 7,9 C 1,2 km/h (1 Bft)
24.12.2013 04:00 9,0 C 14,8 C 7,5 C 8,8 C 8,5 C 0,0 C 67 % 76 % 0 % 1008,7 hPa 0,0 l/m 2,3 km/h (1 Bft) O-NO 0,00 h 0,0 UV-I 3,3 C 8,5 C 4,0 km/h (1 Bft)
24.12.2013 05:00 10,1 C 14,7 C 8,4 C 9,9 C 9,7 C 0,0 C 61 % 71 % 0 % 1007,8 hPa 0,0 l/m 3,4 km/h (1 Bft) S-SO 0,00 h 0,0 UV-I 2,8 C 9,7 C 5,8 km/h (1 Bft)
24.12.2013 06:00 10,4 C 14,8 C 8,7 C 10,2 C 9,8 C 0,0 C 58 % 68 % 0 % 1007,4 hPa 0,0 l/m 3,1 km/h (1 Bft) S 0,00 h 0,0 UV-I 2,4 C 9,8 C 5,5 km/h (1 Bft)
24.12.2013 07:00 10,0 C 14,8 C 8,1 C 9,6 C 8,9 C 0,0 C 57 % 68 % 0 % 1007,5 hPa 0,0 l/m 1,8 km/h (1 Bft) NO 0,00 h 0,0 UV-I 1,9 C 8,9 C 2,3 km/h (1 Bft)
24.12.2013 08:00 9,9 C 14,8 C 8,0 C 9,5 C 8,9 C 0,0 C 56 % 67 % 0 % 1007,1 hPa 0,0 l/m 2,2 km/h (1 Bft) S 0,00 h 0,0 UV-I 1,5 C 8,9 C 3,7 km/h (1 Bft)
24.12.2013 09:00 10,5 C 14,8 C 9,0 C 10,5 C 10,3 C 0,0 C 53 % 64 % 0 % 1006,8 hPa 0,0 l/m 4,1 km/h (1 Bft) O 0,00 h 0,0 UV-I 1,4 C 10,3 C 6,6 km/h (2 Bft)
24.12.2013 10:00 11,0 C 14,9 C 9,6 C 10,9 C 10,8 C 0,0 C 52 % 62 % 0 % 1006,7 hPa 0,0 l/m 4,8 km/h (1 Bft) S 0,00 h 0,0 UV-I 1,5 C 10,8 C 7,6 km/h (2 Bft)
24.12.2013 11:00 11,2 C 14,9 C 10,0 C 11,4 C 11,4 C 0,2 C 51 % 61 % 5 % 1006,2 hPa 0,0 l/m 3,7 km/h (1 Bft) S 0,00 h 0,0 UV-I 1,5 C 11,4 C 5,8 km/h (2 Bft)
24.12.2013 12:00 11,5 C 15,0 C 10,3 C 11,6 C 11,6 C 0,0 C 50 % 60 % 1 % 1005,8 hPa 0,0 l/m 2,7 km/h (1 Bft) O-NO 0,00 h 0,0 UV-I 1,5 C 11,6 C 3,4 km/h (1 Bft)
24.12.2013 13:00 11,9 C 15,0 C 10,7 C 11,9 C 11,9 C 0,0 C 49 % 57 % 0 % 1004,3 hPa 0,0 l/m 2,6 km/h (1 Bft) O-NO 0,00 h 0,0 UV-I 1,4 C 11,9 C 4,3 km/h (1 Bft)
24.12.2013 14:00 10,7 C 15,1 C 10,0 C 10,8 C 10,7 C 0,0 C 54 % 59 % 1 % 1003,4 hPa 0,0 l/m 2,7 km/h (1 Bft) O-NO 0,00 h 0,0 UV-I 1,8 C 10,7 C 3,2 km/h (1 Bft)
24.12.2013 15:00 10,2 C 15,1 C 9,5 C 10,2 C 10,2 C 0,0 C 55 % 61 % 1 % 1003,0 hPa 0,0 l/m 2,6 km/h (1 Bft) O-NO 0,00 h 0,0 UV-I 1,6 C 10,2 C 3,2 km/h (1 Bft)
24.12.2013 16:00 9,4 C 15,1 C 8,4 C 9,2 C 8,7 C 0,0 C 56 % 63 % 0 % 1002,5 hPa 0,0 l/m 3,0 km/h (1 Bft) O-NO 0,00 h 0,0 UV-I 1,1 C 8,6 C 3,7 km/h (1 Bft)
24.12.2013 17:00 8,2 C 15,2 C 7,4 C 8,0 C 7,6 C 0,0 C 59 % 66 % 0 % 1002,2 hPa 0,0 l/m 3,0 km/h (1 Bft) O-NO 0,00 h 0,0 UV-I 0,5 C 7,6 C 3,7 km/h (1 Bft)
24.12.2013 18:00 8,4 C 15,2 C 7,6 C 8,3 C 8,0 C 0,0 C 57 % 65 % 0 % 1001,8 hPa 0,0 l/m 3,5 km/h (1 Bft) O-NO 0,00 h 0,0 UV-I 0,5 C 8,0 C 4,4 km/h (1 Bft)
24.12.2013 19:00 8,4 C 15,1 C 7,5 C 8,3 C 8,1 C 0,0 C 58 % 65 % 0 % 1000,9 hPa 0,0 l/m 3,4 km/h (1 Bft) O-NO 0,00 h 0,0 UV-I 0,7 C 8,1 C 4,1 km/h (1 Bft)
24.12.2013 20:00 8,2 C 15,1 C 7,4 C 8,1 C 7,8 C 0,0 C 59 % 66 % 0 % 1001,0 hPa 0,0 l/m 2,9 km/h (1 Bft) O-SO 0,00 h 0,0 UV-I 0,8 C 7,8 C 3,4 km/h (1 Bft)
24.12.2013 21:00 8,0 C 15,1 C 7,3 C 7,8 C 7,6 C 0,0 C 61 % 67 % 0 % 1001,0 hPa 0,0 l/m 2,6 km/h (1 Bft) O-NO 0,00 h 0,0 UV-I 1,0 C 7,6 C 2,9 km/h (1 Bft)
24.12.2013 22:00 8,0 C 15,1 C 7,2 C 7,8 C 7,5 C 0,0 C 62 % 68 % 0 % 1000,7 hPa 0,0 l/m 2,5 km/h (1 Bft) O-SO 0,00 h 0,0 UV-I 1,1 C 7,5 C 2,9 km/h (1 Bft)
24.12.2013 23:00 7,9 C 15,0 C 7,1 C 7,8 C 7,5 C 0,0 C 62 % 69 % 0 % 1000,0 hPa 0,0 l/m 1,6 km/h (1 Bft) O-NO 0,00 h 0,0 UV-I 1,1 C 7,5 C 2,1 km/h (1 Bft)
25.12.2013 00:00 8,0 C 15,0 C 7,2 C 7,9 C 7,8 C 0,0 C 62 % 69 % 0 % 999,2 hPa 0,0 l/m 0,8 km/h (0 Bft) O-SO 0,00 h 0,0 UV-I 1,2 C 7,8 C 1,4 km/h (1 Bft)
25.12.2013 01:00 8,5 C 15,0 C 7,6 C 8,4 C 8,3 C 0,0 C 61 % 68 % 0 % 998,3 hPa 0,0 l/m 2,1 km/h (1 Bft) O-NO 0,00 h 0,0 UV-I 1,4 C 8,3 C 4,0 km/h (1 Bft)
25.12.2013 02:00 8,1 C 15,0 C 7,3 C 8,0 C 7,7 C 0,0 C 63 % 69 % 0 % 997,4 hPa 0,0 l/m 2,1 km/h (1 Bft) O-SO 0,00 h 0,0 UV-I 1,4 C 7,7 C 2,9 km/h (1 Bft)
25.12.2013 03:00 8,1 C 15,0 C 7,2 C 8,0 C 7,9 C 0,0 C 64 % 71 % 0 % 996,5 hPa 0,0 l/m 2,6 km/h (1 Bft) S 0,00 h 0,0 UV-I 1,7 C 7,9 C 3,7 km/h (1 Bft)
25.12.2013 04:00 8,0 C 15,0 C 7,3 C 7,9 C 7,7 C 0,0 C 65 % 71 % 0 % 995,8 hPa 0,0 l/m 2,8 km/h (1 Bft) O 0,00 h 0,0 UV-I 1,9 C 7,7 C 4,5 km/h (1 Bft)
25.12.2013 05:00 7,8 C 15,0 C 7,1 C 7,7 C 7,4 C 0,0 C 66 % 72 % 0 % 994,9 hPa 0,0 l/m 2,1 km/h (1 Bft) O-SO 0,00 h 0,0 UV-I 1,8 C 7,4 C 3,0 km/h (1 Bft)
25.12.2013 06:00 8,0 C 15,0 C 7,2 C 8,0 C 8,0 C 0,0 C 65 % 72 % 0 % 994,7 hPa 0,0 l/m 1,7 km/h (1 Bft) O-SO 0,00 h 0,0 UV-I 1,9 C 8,0 C 2,3 km/h (1 Bft)
25.12.2013 07:00 8,2 C 15,0 C 7,4 C 8,2 C 8,0 C 0,0 C 65 % 71 % 0 % 994,7 hPa 0,0 l/m 1,7 km/h (1 Bft) O-NO 0,00 h 0,0 UV-I 2,0 C 8,0 C 2,4 km/h (1 Bft)
25.12.2013 08:00 8,4 C 15,0 C 7,8 C 8,4 C 8,4 C 0,0 C 63 % 70 % 0 % 994,5 hPa 0,0 l/m 2,3 km/h (1 Bft) O-SO 0,00 h 0,0 UV-I 1,9 C 8,4 C 4,2 km/h (1 Bft)
25.12.2013 09:00 8,5 C 15,0 C 7,9 C 8,5 C 8,5 C 0,1 C 64 % 70 % 1 % 994,6 hPa 0,0 l/m 2,1 km/h (1 Bft) O-SO 0,00 h 0,0 UV-I 2,1 C 8,5 C 3,1 km/h (1 Bft)
25.12.2013 10:00 8,9 C 14,9 C 8,3 C 9,2 C 9,2 C 0,4 C 64 % 70 % 9 % 994,2 hPa 0,0 l/m 1,8 km/h (1 Bft) S 0,00 h 0,0 UV-I 2,4 C 9,2 C 2,0 km/h (1 Bft)
25.12.2013 11:00 9,3 C 15,0 C 8,9 C 10,2 C 10,2 C 0,9 C 64 % 71 % 24 % 994,0 hPa 0,0 l/m 0,2 km/h (0 Bft) N 0,00 h 0,0 UV-I 2,9 C 10,2 C 0,2 km/h (0 Bft)
25.12.2013 12:00 9,4 C 15,1 C 8,8 C 9,8 C 9,8 C 0,4 C 65 % 72 % 11 % 994,9 hPa 0,0 l/m 0,7 km/h (0 Bft) O-NO 0,00 h 0,0 UV-I 3,2 C 9,8 C 0,8 km/h (0 Bft)
25.12.2013 13:00 8,9 C 15,1 C 8,3 C 9,2 C 9,2 C 0,3 C 69 % 75 % 7 % 995,0 hPa 0,0 l/m 0,4 km/h (0 Bft) O-NO 0,00 h 0,0 UV-I 3,5 C 9,2 C 0,4 km/h (0 Bft)
25.12.2013 14:00 8,7 C 15,2 C 8,1 C 9,1 C 9,1 C 0,3 C 70 % 78 % 8 % 994,9 hPa 0,0 l/m 0,1 km/h (0 Bft) N 0,00 h 0,0 UV-I 3,6 C 9,1 C 0,0 km/h (0 Bft)
25.12.2013 15:00 8,8 C 15,2 C 8,0 C 8,9 C 8,9 C 0,1 C 68 % 76 % 3 % 995,4 hPa 0,0 l/m 0,8 km/h (0 Bft) N-NW 0,00 h 0,0 UV-I 3,2 C 8,9 C 1,1 km/h (1 Bft)
25.12.2013 16:00 8,2 C 15,3 C 7,3 C 8,2 C 8,0 C 0,0 C 69 % 77 % 0 % 995,7 hPa 0,0 l/m 0,3 km/h (0 Bft) N 0,00 h 0,0 UV-I 2,9 C 8,0 C 0,4 km/h (0 Bft)
25.12.2013 17:00 7,8 C 15,3 C 7,0 C 7,8 C 7,6 C 0,0 C 70 % 77 % 0 % 996,8 hPa 0,0 l/m 0,5 km/h (0 Bft) SO 0,00 h 0,0 UV-I 2,7 C 7,6 C 0,8 km/h (0 Bft)
25.12.2013 18:00 6,9 C 15,3 C 6,2 C 6,8 C 6,6 C 0,0 C 73 % 80 % 0 % 996,9 hPa 0,0 l/m 0,1 km/h (0 Bft) N 0,00 h 0,0 UV-I 2,5 C 6,6 C 0,2 km/h (0 Bft)
25.12.2013 19:00 6,1 C 15,3 C 5,5 C 6,0 C 5,8 C 0,0 C 77 % 81 % 0 % 997,5 hPa 0,0 l/m 0,1 km/h (0 Bft) N 0,00 h 0,0 UV-I 2,3 C 5,8 C 0,0 km/h (0 Bft)
25.12.2013 20:00 5,2 C 15,5 C 4,7 C 5,0 C 4,7 C 0,0 C 80 % 83 % 0 % 997,5 hPa 0,0 l/m 0,3 km/h (0 Bft) W 0,00 h 0,0 UV-I 1,9 C 4,7 C 0,4 km/h (0 Bft)
25.12.2013 21:00 4,9 C 15,5 C 4,8 C 5,0 C 5,0 C 0,2 C 83 % 84 % 0 % 998,0 hPa 0,0 l/m 0,1 km/h (0 Bft) N 0,00 h 0,0 UV-I 2,2 C 5,0 C 0,2 km/h (0 Bft)
25.12.2013 22:00 5,0 C 15,4 C 4,8 C 5,1 C 5,1 C 0,2 C 83 % 84 % 0 % 998,9 hPa 0,0 l/m 0,1 km/h (0 Bft) N 0,00 h 0,0 UV-I 2,4 C 5,1 C 0,0 km/h (0 Bft)
25.12.2013 23:00 4,6 C 15,5 C 4,3 C 4,6 C 4,5 C 0,0 C 84 % 85 % 0 % 999,1 hPa 0,0 l/m 0,1 km/h (0 Bft) N 0,00 h 0,0 UV-I 2,1 C 4,5 C 0,0 km/h (0 Bft)
26.12.2013 00:00 4,5 C 15,4 C 4,6 C 5,0 C 5,0 C 0,5 C 85 % 85 % 0 % 999,6 hPa 0,0 l/m 0,1 km/h (0 Bft) N 0,00 h 0,0 UV-I 2,1 C 5,0 C 0,0 km/h (0 Bft)
26.12.2013 01:00 4,8 C 15,3 C 4,7 C 5,2 C 5,2 C 0,4 C 85 % 85 % 0 % 999,3 hPa 0,0 l/m 0,6 km/h (0 Bft) O-NO 0,00 h 0,0 UV-I 2,5 C 5,2 C 1,3 km/h (1 Bft)
26.12.2013 02:00 5,2 C 15,4 C 4,9 C 5,4 C 5,4 C 0,2 C 84 % 85 % 0 % 999,0 hPa 0,0 l/m 0,5 km/h (0 Bft) W-NW 0,00 h 0,0 UV-I 2,8 C 5,4 C 0,7 km/h (0 Bft)
26.12.2013 03:00 4,8 C 15,6 C 4,8 C 4,9 C 4,8 C 0,0 C 86 % 86 % 0 % 998,1 hPa 0,0 l/m 0,2 km/h (0 Bft) N 0,00 h 0,0 UV-I 2,6 C 4,8 C 0,3 km/h (0 Bft)
26.12.2013 04:00 4,6 C 15,5 C 4,9 C 5,0 C 5,0 C 0,4 C 86 % 86 % 0 % 997,8 hPa 0,0 l/m 0,5 km/h (0 Bft) N 0,00 h 0,0 UV-I 2,5 C 5,0 C 0,6 km/h (0 Bft)
26.12.2013 05:00 4,5 C 15,5 C 5,0 C 5,2 C 5,2 C 0,7 C 87 % 86 % 0 % 997,1 hPa 0,0 l/m 0,9 km/h (0 Bft) O 0,00 h 0,0 UV-I 2,5 C 5,2 C 1,5 km/h (1 Bft)
26.12.2013 06:00 4,3 C 15,5 C 4,9 C 5,0 C 5,0 C 0,7 C 87 % 86 % 0 % 996,6 hPa 0,0 l/m 0,5 km/h (0 Bft) O-NO 0,00 h 0,0 UV-I 2,4 C 5,0 C 0,4 km/h (0 Bft)
26.12.2013 07:00 4,1 C 15,5 C 4,7 C 4,7 C 4,7 C 0,6 C 88 % 87 % 0 % 996,3 hPa 0,0 l/m 0,6 km/h (0 Bft) O-NO 0,00 h 0,0 UV-I 2,2 C 4,7 C 1,3 km/h (1 Bft)
26.12.2013 08:00 3,8 C 15,5 C 4,5 C 4,3 C 4,3 C 0,5 C 88 % 87 % 5 % 996,0 hPa 0,0 l/m 0,9 km/h (0 Bft) O-NO 0,08 h 0,0 UV-I 2,0 C 4,3 C 0,8 km/h (0 Bft)
26.12.2013 09:00 3,6 C 15,5 C 4,2 C 4,2 C 4,2 C 0,6 C 88 % 88 % 17 % 996,3 hPa 0,0 l/m 0,0 km/h (0 Bft) N 0,00 h 0,0 UV-I 1,8 C 4,2 C 0,0 km/h (0 Bft)
26.12.2013 10:00 3,7 C 15,4 C 4,5 C 5,0 C 5,0 C 1,3 C 89 % 88 % 34 % 996,4 hPa 0,0 l/m 0,1 km/h (0 Bft) N 0,00 h 0,0 UV-I 2,1 C 5,0 C 0,2 km/h (0 Bft)
26.12.2013 11:00 4,5 C 15,3 C 5,7 C 6,8 C 6,8 C 2,3 C 90 % 88 % 61 % 996,1 hPa 0,0 l/m 0,2 km/h (0 Bft) N 0,00 h 0,0 UV-I 2,9 C 6,8 C 0,1 km/h (0 Bft)
26.12.2013 12:00 5,8 C 15,1 C 6,9 C 8,2 C 8,2 C 2,4 C 88 % 86 % 64 % 995,8 hPa 0,0 l/m 0,2 km/h (0 Bft) N 0,00 h 0,0 UV-I 4,0 C 8,2 C 0,9 km/h (0 Bft)
26.12.2013 13:00 6,8 C 15,1 C 7,2 C 8,4 C 8,4 C 1,6 C 86 % 85 % 43 % 996,2 hPa 0,0 l/m 0,2 km/h (0 Bft) W-SW 0,00 h 0,0 UV-I 4,6 C 8,4 C 0,5 km/h (0 Bft)
26.12.2013 14:00 7,2 C 15,2 C 7,2 C 8,2 C 8,2 C 1,0 C 85 % 85 % 27 % 996,0 hPa 0,0 l/m 1,4 km/h (1 Bft) SW 0,00 h 0,0 UV-I 4,8 C 8,2 C 2,0 km/h (1 Bft)
26.12.2013 15:00 5,9 C 15,5 C 6,0 C 5,8 C 5,7 C 0,0 C 86 % 85 % 1 % 997,0 hPa 0,0 l/m 3,9 km/h (1 Bft) SW 0,00 h 0,0 UV-I 3,8 C 5,4 C 5,4 km/h (1 Bft)
26.12.2013 16:00 5,3 C 15,4 C 6,1 C 6,1 C 6,1 C 0,8 C 88 % 86 % 0 % 997,9 hPa 0,0 l/m 2,4 km/h (1 Bft) W-SW 0,00 h 0,0 UV-I 3,5 C 5,9 C 2,7 km/h (1 Bft)
26.12.2013 17:00 5,2 C 15,5 C 6,0 C 6,2 C 6,2 C 1,0 C 88 % 86 % 0 % 999,1 hPa 0,0 l/m 0,6 km/h (0 Bft) W-SW 0,00 h 0,0 UV-I 3,4 C 6,2 C 1,2 km/h (1 Bft)
26.12.2013 18:00 5,1 C 15,5 C 5,9 C 6,1 C 6,1 C 1,0 C 88 % 86 % 0 % 1000,0 hPa 0,0 l/m 3,2 km/h (1 Bft) W-SW 0,00 h 0,0 UV-I 3,3 C 6,1 C 3,6 km/h (1 Bft)
26.12.2013 19:00 5,2 C 15,4 C 5,9 C 5,8 C 5,8 C 0,7 C 88 % 86 % 0 % 1000,6 hPa 0,0 l/m 4,0 km/h (1 Bft) W-SW 0,00 h 0,0 UV-I 3,4 C 5,5 C 3,9 km/h (1 Bft)
26.12.2013 20:00 5,2 C 15,4 C 6,0 C 6,0 C 6,0 C 0,8 C 88 % 86 % 0 % 1001,6 hPa 0,0 l/m 3,5 km/h (1 Bft) SW 0,00 h 0,0 UV-I 3,4 C 5,8 C 4,1 km/h (1 Bft)
26.12.2013 21:00 5,2 C 15,5 C 6,0 C 5,9 C 5,9 C 0,8 C 88 % 86 % 0 % 1002,4 hPa 0,0 l/m 3,1 km/h (1 Bft) W-SW 0,00 h 0,0 UV-I 3,4 C 5,9 C 3,3 km/h (1 Bft)
26.12.2013 22:00 5,1 C 15,6 C 5,9 C 6,0 C 6,0 C 0,9 C 89 % 87 % 0 % 1003,6 hPa 0,0 l/m 1,3 km/h (1 Bft) S 0,00 h 0,0 UV-I 3,4 C 6,0 C 1,4 km/h (1 Bft)
26.12.2013 23:00 5,1 C 15,6 C 6,0 C 6,1 C 6,1 C 1,0 C 89 % 87 % 0 % 1004,4 hPa 0,0 l/m 1,8 km/h (1 Bft) S 0,00 h 0,0 UV-I 3,4 C 6,1 C 3,1 km/h (1 Bft)
27.12.2013 00:00 5,1 C 15,6 C 6,0 C 5,5 C 5,5 C 0,5 C 90 % 87 % 0 % 1005,1 hPa 0,0 l/m 4,5 km/h (1 Bft) SW 0,00 h 0,0 UV-I 3,6 C 4,7 C 7,5 km/h (2 Bft)
27.12.2013 01:00 5,2 C 15,6 C 6,1 C 5,1 C 4,9 C 0,0 C 90 % 87 % 0 % 1006,1 hPa 0,0 l/m 6,8 km/h (2 Bft) W-SW 0,00 h 0,0 UV-I 3,7 C 3,4 C 9,2 km/h (2 Bft)
27.12.2013 02:00 5,0 C 15,6 C 5,8 C 5,0 C 4,9 C 0,1 C 90 % 88 % 0 % 1007,0 hPa 0,7 l/m 5,6 km/h (1 Bft) W-SW 0,00 h 0,0 UV-I 3,5 C 3,8 C 6,2 km/h (2 Bft)
27.12.2013 03:00 4,9 C 15,6 C 5,7 C 4,9 C 4,7 C 0,1 C 90 % 89 % 0 % 1007,7 hPa 0,0 l/m 5,6 km/h (1 Bft) W-SW 0,00 h 0,0 UV-I 3,3 C 3,7 C 7,8 km/h (2 Bft)
27.12.2013 04:00 4,9 C 15,5 C 5,6 C 5,3 C 5,2 C 0,4 C 89 % 89 % 0 % 1008,0 hPa 0,0 l/m 3,8 km/h (1 Bft) SW 0,00 h 0,0 UV-I 3,2 C 4,8 C 4,1 km/h (1 Bft)
27.12.2013 05:00 4,9 C 15,5 C 5,6 C 5,6 C 5,6 C 0,7 C 89 % 89 % 0 % 1008,6 hPa 0,0 l/m 2,4 km/h (1 Bft) S 0,00 h 0,0 UV-I 3,2 C 5,6 C 3,3 km/h (1 Bft)
27.12.2013 06:00 5,0 C 15,5 C 5,7 C 5,6 C 5,6 C 0,6 C 89 % 89 % 0 % 1009,1 hPa 0,0 l/m 2,5 km/h (1 Bft) SO 0,00 h 0,0 UV-I 3,2 C 5,6 C 3,8 km/h (1 Bft)
27.12.2013 07:00 5,6 C 15,1 C 5,9 C 5,7 C 5,7 C 0,2 C 86 % 89 % 0 % 1009,2 hPa 0,0 l/m 3,0 km/h (1 Bft) S 0,00 h 0,0 UV-I 3,4 C 5,7 C 4,7 km/h (1 Bft)
27.12.2013 08:00 6,0 C 15,0 C 5,9 C 6,0 C 6,0 C 0,0 C 82 % 88 % 0 % 1009,6 hPa 0,0 l/m 3,1 km/h (1 Bft) S-SO 0,00 h 0,0 UV-I 3,2 C 6,0 C 4,3 km/h (1 Bft)
27.12.2013 09:00 6,0 C 14,9 C 5,6 C 5,7 C 5,2 C 0,0 C 77 % 85 % 0 % 1010,0 hPa 0,0 l/m 4,9 km/h (1 Bft) S-SO 0,00 h 0,0 UV-I 2,3 C 4,6 C 5,3 km/h (1 Bft)
27.12.2013 10:00 6,0 C 14,9 C 5,2 C 5,9 C 5,6 C 0,1 C 74 % 83 % 2 % 1010,1 hPa 0,0 l/m 4,6 km/h (1 Bft) S 0,00 h 0,0 UV-I 1,7 C 5,2 C 5,6 km/h (1 Bft)
27.12.2013 11:00 6,3 C 14,8 C 5,5 C 6,6 C 6,4 C 0,3 C 70 % 80 % 9 % 1009,7 hPa 0,0 l/m 6,7 km/h (2 Bft) S-SO 0,00 h 0,0 UV-I 1,3 C 5,1 C 9,1 km/h (2 Bft)
27.12.2013 12:00 6,7 C 14,8 C 5,9 C 6,8 C 6,7 C 0,1 C 69 % 78 % 3 % 1008,1 hPa 0,0 l/m 6,0 km/h (2 Bft) S 0,00 h 0,0 UV-I 1,4 C 5,7 C 8,0 km/h (2 Bft)
27.12.2013 13:00 7,6 C 14,8 C 6,8 C 8,2 C 8,2 C 0,6 C 65 % 75 % 17 % 1007,3 hPa 0,0 l/m 5,8 km/h (2 Bft) S-SO 0,00 h 0,0 UV-I 1,5 C 7,5 C 6,9 km/h (2 Bft)
27.12.2013 14:00 8,0 C 14,9 C 7,1 C 8,9 C 8,9 C 0,9 C 63 % 71 % 24 % 1007,8 hPa 0,0 l/m 5,4 km/h (1 Bft) S-SO 0,00 h 0,0 UV-I 1,4 C 8,5 C 8,4 km/h (2 Bft)
27.12.2013 15:00 7,7 C 14,9 C 6,6 C 7,7 C 7,2 C 0,2 C 64 % 71 % 5 % 1008,2 hPa 0,0 l/m 4,2 km/h (1 Bft) O-NO 0,00 h 0,0 UV-I 1,3 C 6,9 C 4,8 km/h (1 Bft)
27.12.2013 16:00 6,7 C 14,9 C 5,5 C 6,3 C 5,4 C 0,0 C 65 % 73 % 0 % 1007,6 hPa 0,0 l/m 2,0 km/h (1 Bft) O-NO 0,00 h 0,0 UV-I 0,6 C 5,4 C 2,6 km/h (1 Bft)
27.12.2013 17:00 6,2 C 14,9 C 4,8 C 5,8 C 4,8 C 0,0 C 64 % 73 % 0 % 1007,3 hPa 0,0 l/m 2,6 km/h (1 Bft) S 0,00 h 0,0 UV-I 0,0 C 4,8 C 3,3 km/h (1 Bft)
27.12.2013 18:00 6,1 C 14,9 C 4,7 C 5,7 C 4,9 C 0,0 C 66 % 74 % 0 % 1007,7 hPa 0,0 l/m 1,9 km/h (1 Bft) O-NO 0,00 h 0,0 UV-I 0,1 C 4,9 C 2,3 km/h (1 Bft)
27.12.2013 19:00 6,6 C 14,8 C 5,2 C 6,3 C 5,6 C 0,0 C 64 % 73 % 0 % 1008,0 hPa 0,0 l/m 3,0 km/h (1 Bft) S 0,00 h 0,0 UV-I 0,4 C 5,6 C 3,9 km/h (1 Bft)
27.12.2013 20:00 7,2 C 14,8 C 5,6 C 6,7 C 5,8 C 0,0 C 62 % 71 % 0 % 1007,8 hPa 0,0 l/m 4,4 km/h (1 Bft) S 0,00 h 0,0 UV-I 0,3 C 5,5 C 4,7 km/h (1 Bft)
27.12.2013 21:00 7,0 C 14,7 C 5,5 C 6,7 C 6,0 C 0,0 C 61 % 70 % 0 % 1007,8 hPa 0,0 l/m 3,1 km/h (1 Bft) W-SW 0,00 h 0,0 UV-I -0,1 C 5,9 C 3,3 km/h (1 Bft)
27.12.2013 22:00 6,6 C 14,7 C 5,3 C 6,3 C 5,8 C 0,0 C 62 % 71 % 0 % 1008,3 hPa 0,0 l/m 2,5 km/h (1 Bft) S 0,00 h 0,0 UV-I -0,0 C 5,8 C 3,7 km/h (1 Bft)
27.12.2013 23:00 6,6 C 14,7 C 5,1 C 6,2 C 5,6 C 0,0 C 65 % 73 % 0 % 1007,9 hPa 0,0 l/m 1,4 km/h (1 Bft) W-SW 0,00 h 0,0 UV-I 0,4 C 5,6 C 2,1 km/h (1 Bft)
28.12.2013 00:00 6,4 C 14,6 C 5,0 C 6,1 C 5,6 C 0,0 C 69 % 76 % 0 % 1008,0 hPa 0,0 l/m 3,0 km/h (1 Bft) S 0,00 h 0,0 UV-I 1,1 C 5,6 C 4,7 km/h (1 Bft)
28.12.2013 01:00 6,8 C 14,6 C 5,5 C 6,5 C 5,9 C 0,0 C 70 % 76 % 0 % 1007,8 hPa 0,0 l/m 2,2 km/h (1 Bft) O 0,00 h 0,0 UV-I 1,6 C 5,9 C 3,7 km/h (1 Bft)
28.12.2013 02:00 7,1 C 14,6 C 6,0 C 6,9 C 6,5 C 0,0 C 71 % 77 % 0 % 1007,3 hPa 0,0 l/m 2,2 km/h (1 Bft) O-NO 0,00 h 0,0 UV-I 2,3 C 6,5 C 2,6 km/h (1 Bft)
28.12.2013 03:00 7,7 C 14,6 C 6,7 C 7,6 C 7,4 C 0,0 C 71 % 77 % 0 % 1007,3 hPa 0,0 l/m 2,4 km/h (1 Bft) SO 0,00 h 0,0 UV-I 2,7 C 7,4 C 3,8 km/h (1 Bft)
28.12.2013 04:00 8,8 C 14,7 C 7,7 C 8,8 C 8,7 C 0,1 C 70 % 76 % 0 % 1006,9 hPa 0,0 l/m 3,9 km/h (1 Bft) W 0,00 h 0,0 UV-I 3,7 C 8,6 C 4,7 km/h (1 Bft)
28.12.2013 05:00 9,3 C 14,7 C 8,4 C 9,3 C 9,2 C 0,0 C 71 % 76 % 0 % 1006,2 hPa 0,0 l/m 1,8 km/h (1 Bft) O-NO 0,00 h 0,0 UV-I 4,2 C 9,2 C 1,8 km/h (1 Bft)
28.12.2013 06:00 9,2 C 14,7 C 8,0 C 9,1 C 8,9 C 0,0 C 69 % 76 % 0 % 1005,6 hPa 0,0 l/m 0,4 km/h (0 Bft) O-NO 0,00 h 0,0 UV-I 3,9 C 8,9 C 1,1 km/h (1 Bft)
28.12.2013 07:00 9,4 C 14,8 C 8,1 C 9,3 C 9,0 C 0,0 C 69 % 76 % 0 % 1005,1 hPa 0,0 l/m 0,5 km/h (0 Bft) O-NO 0,00 h 0,0 UV-I 4,0 C 9,0 C 1,0 km/h (0 Bft)
28.12.2013 08:00 9,1 C 14,8 C 8,0 C 9,0 C 8,8 C 0,0 C 68 % 75 % 0 % 1005,0 hPa 0,0 l/m 2,2 km/h (1 Bft) O-SO 0,00 h 0,0 UV-I 3,5 C 8,8 C 2,6 km/h (1 Bft)
28.12.2013 09:00 8,8 C 14,9 C 8,0 C 8,8 C 8,7 C 0,0 C 70 % 75 % 0 % 1005,0 hPa 0,0 l/m 1,1 km/h (0 Bft) O-NO 0,00 h 0,0 UV-I 3,7 C 8,7 C 0,9 km/h (0 Bft)
28.12.2013 10:00 9,1 C 14,9 C 8,5 C 9,8 C 9,8 C 0,7 C 72 % 76 % 18 % 1005,5 hPa 0,0 l/m 0,3 km/h (0 Bft) O-SO 0,00 h 0,0 UV-I 4,3 C 9,8 C 0,5 km/h (0 Bft)
28.12.2013 11:00 10,6 C 15,0 C 9,8 C 11,0 C 11,0 C 0,4 C 62 % 69 % 12 % 1005,2 hPa 0,0 l/m 2,9 km/h (1 Bft) S-SW 0,00 h 0,0 UV-I 3,6 C 11,0 C 5,5 km/h (1 Bft)
28.12.2013 12:00 11,6 C 15,1 C 10,5 C 11,9 C 11,9 C 0,3 C 55 % 64 % 7 % 1005,3 hPa 0,0 l/m 4,5 km/h (1 Bft) S 0,00 h 0,0 UV-I 3,0 C 11,9 C 6,5 km/h (2 Bft)
28.12.2013 13:00 11,9 C 15,1 C 11,1 C 12,0 C 11,9 C 0,1 C 54 % 61 % 3 % 1005,5 hPa 0,0 l/m 5,6 km/h (1 Bft) S 0,00 h 0,0 UV-I 3,0 C 11,9 C 9,1 km/h (2 Bft)
28.12.2013 14:00 11,6 C 15,2 C 11,0 C 11,6 C 11,5 C 0,0 C 56 % 62 % 1 % 1005,7 hPa 0,0 l/m 7,2 km/h (2 Bft) O-SO 0,00 h 0,0 UV-I 3,2 C 11,5 C 9,6 km/h (2 Bft)
28.12.2013 15:00 11,0 C 15,3 C 10,4 C 11,0 C 10,9 C 0,0 C 60 % 66 % 1 % 1006,1 hPa 0,0 l/m 5,4 km/h (1 Bft) SW 0,00 h 0,0 UV-I 3,6 C 10,9 C 5,7 km/h (1 Bft)
28.12.2013 16:00 10,4 C 15,4 C 9,6 C 10,3 C 10,0 C 0,0 C 61 % 67 % 0 % 1006,3 hPa 0,0 l/m 4,9 km/h (1 Bft) S 0,00 h 0,0 UV-I 3,2 C 9,8 C 6,9 km/h (2 Bft)
28.12.2013 17:00 9,7 C 15,4 C 8,8 C 9,4 C 9,0 C 0,0 C 64 % 70 % 0 % 1006,3 hPa 0,0 l/m 4,4 km/h (1 Bft) S 0,00 h 0,0 UV-I 3,2 C 8,8 C 4,9 km/h (1 Bft)
28.12.2013 18:00 9,1 C 15,4 C 8,3 C 9,0 C 8,8 C 0,0 C 67 % 72 % 0 % 1006,7 hPa 0,0 l/m 2,4 km/h (1 Bft) SO 0,00 h 0,0 UV-I 3,2 C 8,8 C 3,8 km/h (1 Bft)
28.12.2013 19:00 8,8 C 15,4 C 7,9 C 8,7 C 8,4 C 0,0 C 68 % 74 % 0 % 1007,0 hPa 0,0 l/m 1,5 km/h (1 Bft) SO 0,00 h 0,0 UV-I 3,2 C 8,4 C 1,7 km/h (1 Bft)
28.12.2013 20:00 8,0 C 15,5 C 6,9 C 7,8 C 7,5 C 0,0 C 71 % 77 % 0 % 1007,2 hPa 0,0 l/m 0,1 km/h (0 Bft) N 0,00 h 0,0 UV-I 3,0 C 7,5 C 0,0 km/h (0 Bft)
28.12.2013 21:00 7,3 C 15,5 C 6,5 C 7,3 C 7,1 C 0,0 C 74 % 80 % 0 % 1007,4 hPa 0,0 l/m 0,2 km/h (0 Bft) N 0,00 h 0,0 UV-I 3,1 C 7,1 C 0,4 km/h (0 Bft)
28.12.2013 22:00 6,9 C 15,5 C 6,1 C 6,8 C 6,8 C 0,0 C 77 % 81 % 0 % 1008,1 hPa 0,0 l/m 0,2 km/h (0 Bft) N 0,00 h 0,0 UV-I 3,1 C 6,8 C 0,3 km/h (0 Bft)
28.12.2013 23:00 6,4 C 15,6 C 5,9 C 6,3 C 6,2 C 0,0 C 79 % 83 % 0 % 1008,5 hPa 0,0 l/m 0,2 km/h (0 Bft) N 0,00 h 0,0 UV-I 3,0 C 6,2 C 0,2 km/h (0 Bft)
29.12.2013 00:00 6,3 C 15,6 C 5,9 C 6,2 C 6,1 C 0,0 C 82 % 84 % 0 % 1008,9 hPa 0,0 l/m 0,6 km/h (0 Bft) O 0,00 h 0,0 UV-I 3,4 C 6,1 C 1,9 km/h (1 Bft)
29.12.2013 01:00 6,9 C 15,8 C 6,2 C 6,7 C 6,2 C 0,0 C 83 % 85 % 0 % 1008,8 hPa 0,0 l/m 0,6 km/h (0 Bft) S 0,00 h 0,0 UV-I 4,3 C 6,2 C 1,1 km/h (1 Bft)
29.12.2013 02:00 7,7 C 15,6 C 6,9 C 7,2 C 6,4 C 0,0 C 82 % 87 % 0 % 1008,6 hPa 0,0 l/m 4,4 km/h (1 Bft) S 0,00 h 0,0 UV-I 4,8 C 5,9 C 7,4 km/h (2 Bft)
29.12.2013 03:00 7,9 C 15,5 C 7,3 C 7,5 C 6,9 C 0,0 C 79 % 86 % 0 % 1008,8 hPa 0,0 l/m 4,9 km/h (1 Bft) S 0,00 h 0,0 UV-I 4,5 C 6,3 C 8,7 km/h (2 Bft)
29.12.2013 04:00 7,9 C 15,4 C 7,5 C 7,6 C 7,1 C 0,0 C 79 % 84 % 0 % 1009,1 hPa 0,0 l/m 5,8 km/h (1 Bft) W-SW 0,00 h 0,0 UV-I 4,4 C 6,2 C 8,4 km/h (2 Bft)
29.12.2013 05:00 8,0 C 15,4 C 7,5 C 7,7 C 6,8 C 0,0 C 78 % 83 % 0 % 1009,5 hPa 0,0 l/m 7,4 km/h (2 Bft) W-SW 0,00 h 0,0 UV-I 4,4 C 5,5 C 10,7 km/h (2 Bft)
29.12.2013 06:00 6,3 C 15,5 C 6,1 C 5,5 C 3,0 C 0,0 C 82 % 83 % 0 % 1011,6 hPa 0,0 l/m 14,8 km/h (3 Bft) W-SW 0,00 h 0,0 UV-I 3,4 C -0,7 C 18,4 km/h (3 Bft)
29.12.2013 07:00 5,4 C 15,5 C 5,3 C 4,9 C 3,2 C 0,0 C 83 % 83 % 0 % 1013,6 hPa 0,0 l/m 10,0 km/h (2 Bft) SW 0,00 h 0,0 UV-I 2,6 C 0,5 C 12,1 km/h (2 Bft)
29.12.2013 08:00 5,4 C 15,4 C 5,1 C 4,9 C 3,6 C 0,0 C 82 % 83 % 0 % 1015,0 hPa 0,0 l/m 7,8 km/h (2 Bft) SW 0,00 h 0,0 UV-I 2,6 C 1,5 C 10,0 km/h (2 Bft)
29.12.2013 09:00 5,0 C 15,3 C 4,6 C 4,5 C 3,5 C 0,0 C 83 % 83 % 0 % 1016,1 hPa 0,0 l/m 6,0 km/h (2 Bft) W-SW 0,00 h 0,0 UV-I 2,3 C 2,0 C 7,0 km/h (2 Bft)
29.12.2013 10:00 5,4 C 15,1 C 5,0 C 5,2 C 4,5 C 0,0 C 79 % 81 % 0 % 1017,1 hPa 0,0 l/m 5,9 km/h (2 Bft) S-SW 0,00 h 0,0 UV-I 2,1 C 3,4 C 7,6 km/h (2 Bft)
29.12.2013 11:00 6,5 C 15,1 C 6,2 C 6,5 C 6,1 C 0,1 C 76 % 79 % 2 % 1017,8 hPa 0,0 l/m 7,6 km/h (2 Bft) SW 0,00 h 0,0 UV-I 2,6 C 4,6 C 10,7 km/h (2 Bft)
29.12.2013 12:00 7,2 C 15,1 C 7,4 C 7,5 C 7,2 C 0,3 C 74 % 76 % 7 % 1017,9 hPa 0,0 l/m 8,3 km/h (2 Bft) SW 0,00 h 0,0 UV-I 2,9 C 5,6 C 10,8 km/h (2 Bft)
29.12.2013 13:00 7,4 C 15,0 C 7,4 C 7,7 C 7,1 C 0,4 C 71 % 74 % 11 % 1018,1 hPa 0,0 l/m 9,2 km/h (2 Bft) SW 0,00 h 0,0 UV-I 2,6 C 5,3 C 12,9 km/h (3 Bft)
29.12.2013 14:00 7,3 C 15,1 C 6,8 C 7,2 C 7,0 C 0,0 C 71 % 75 % 1 % 1018,7 hPa 0,0 l/m 6,2 km/h (2 Bft) S-SO 0,00 h 0,0 UV-I 2,4 C 6,0 C 7,7 km/h (2 Bft)
29.12.2013 15:00 6,7 C 15,2 C 6,5 C 6,7 C 6,6 C 0,0 C 74 % 77 % 1 % 1019,5 hPa 0,0 l/m 3,5 km/h (1 Bft) S 0,00 h 0,0 UV-I 2,5 C 6,5 C 6,2 km/h (2 Bft)
29.12.2013 16:00 6,5 C 15,2 C 6,1 C 6,2 C 5,5 C 0,0 C 74 % 77 % 0 % 1020,4 hPa 0,0 l/m 5,3 km/h (1 Bft) O-SO 0,00 h 0,0 UV-I 2,2 C 4,8 C 6,4 km/h (2 Bft)
29.12.2013 17:00 5,7 C 15,2 C 5,1 C 5,4 C 4,7 C 0,0 C 76 % 79 % 0 % 1021,5 hPa 0,0 l/m 2,7 km/h (1 Bft) S-SO 0,00 h 0,0 UV-I 1,8 C 4,7 C 3,3 km/h (1 Bft)
29.12.2013 18:00 5,1 C 15,1 C 4,6 C 4,7 C 4,1 C 0,0 C 78 % 80 % 0 % 1022,2 hPa 0,0 l/m 2,9 km/h (1 Bft) SW 0,00 h 0,0 UV-I 1,5 C 4,1 C 4,0 km/h (1 Bft)
29.12.2013 19:00 4,9 C 15,1 C 4,6 C 4,7 C 4,4 C 0,0 C 79 % 80 % 0 % 1023,0 hPa 0,0 l/m 2,7 km/h (1 Bft) S-SO 0,00 h 0,0 UV-I 1,5 C 4,4 C 3,7 km/h (1 Bft)
29.12.2013 20:00 4,5 C 15,1 C 4,0 C 3,9 C 2,7 C 0,0 C 80 % 81 % 0 % 1023,5 hPa 0,0 l/m 4,9 km/h (1 Bft) W-SW 0,00 h 0,0 UV-I 1,4 C 1,9 C 7,1 km/h (2 Bft)
29.12.2013 21:00 4,6 C 15,0 C 4,2 C 4,1 C 2,5 C 0,0 C 80 % 82 % 0 % 1024,5 hPa 0,0 l/m 7,8 km/h (2 Bft) W-SW 0,00 h 0,0 UV-I 1,5 C 0,6 C 10,2 km/h (2 Bft)
29.12.2013 22:00 4,0 C 15,0 C 3,4 C 3,5 C 2,4 C 0,0 C 81 % 82 % 0 % 1025,3 hPa 0,0 l/m 2,8 km/h (1 Bft) W-SW 0,00 h 0,0 UV-I 1,0 C 2,4 C 3,4 km/h (1 Bft)
29.12.2013 23:00 3,6 C 14,9 C 3,1 C 3,2 C 2,4 C 0,0 C 82 % 83 % 0 % 1025,9 hPa 0,0 l/m 2,1 km/h (1 Bft) W-SW 0,00 h 0,0 UV-I 0,8 C 2,4 C 3,0 km/h (1 Bft)
Min-Datum _ 29.12.13 27.12.13 29.12.13 29.12.13 29.12.13 23.12.13 24.12.13 24.12.13 23.12.13 25.12.13 - 23.12.13 - - 23.12.13 27.12.13 29.12.13 23.12.13
_ Min-Zeit 23:45 23:35 23:45 23:40 21:05 00:00 13:25 12:59 00:00 11:10 - 20:37 - - 00:00 21:45 06:25 05:20
Minimum _ 3,4 C 14,6 C 2,8 C 2,9 C 1,6 C 0,0 C 48 % 57 % 0 % 993,9 hPa - 0,0 km/h (0 Bft) - - 0,0 UV-I -0,3 C -1,7 C 0,0 km/h (0 Bft)
Max-Datum _ 28.12.13 29.12.13 28.12.13 28.12.13 28.12.13 26.12.13 26.12.13 23.12.13 26.12.13 29.12.13 23.12.13 29.12.13 - 26.12.13 23.12.13 23.12.13 28.12.13 29.12.13
_ Max-Zeit 13:35 01:15 13:55 12:45 12:45 11:50 10:50 06:30 11:50 23:30 04:25 06:05 - 08:30 00:00 00:15 12:45 06:00
Maximum _ 12,1 C 15,9 C 11,3 C 12,2 C 12,2 C 3,0 C 90 % 89 % 79 % 1026,0 hPa 1,4 l/m 17,4 km/h
W-SW (3 Bft)
- 0,08 h 0,0 UV-I 6,3 C 12,2 C 33,6 km/h
W-SW (5 Bft)
Durchschnitt _ 7,3 C 15,2 C 6,7 C 7,4 C 7,0 C 0,2 C 74 % 78 % 3 % 1007,0 hPa #3,4 l/m 3,1 km/h (1 Bft) S #5 min. 0,0 UV-I 2,8 C 6,7 C 4,2 km/h (1 Bft)
2013 www.wetterstation-wechselburg.de